Time;durP1;ratioP1;P1;durP2;ratioP2;P2;SDS_P1;SDS_P2;PMS_P1;PMS_P2;Temp;Humidity;BMP_temperature;BMP_pressure;BME280_temperature;BME280_humidity;BME280_pressure;Samples;Min_cycle;Max_cycle;Signal;HPM_P1;HPM_P2
2022/12/29 00:02:21;;;;;;;9.07;5.67;;;6.30;99.90;;;;;;4986040;28;20174;-65
2022/12/29 00:04:48;;;;;;;7.63;5.50;;;6.40;99.90;;;;;;4973236;28;20184;-66
2022/12/29 00:07:18;;;;;;;8.90;5.10;;;6.40;99.90;;;;;;4971742;28;20639;-69
2022/12/29 00:09:43;;;;;;;6.37;4.93;;;6.50;99.90;;;;;;4972144;28;20409;-67
2022/12/29 00:12:09;;;;;;;8.47;5.00;;;6.40;99.90;;;;;;4971010;28;20563;-67
2022/12/29 00:17:19;;;;;;;8.43;5.23;;;6.40;99.90;;;;;;4991781;28;20207;-65
2022/12/29 00:36:29;;;;;;;10.47;5.30;;;6.70;99.90;;;;;;4991644;28;20427;-68
2022/12/29 00:44:32;;;;;;;4.50;4.10;;;6.80;99.90;;;;;;4991739;28;20536;-64
2022/12/29 00:47:02;;;;;;;5.40;3.60;;;6.70;99.90;;;;;;4988284;28;20432;-67
2022/12/29 00:49:30;;;;;;;5.97;4.90;;;6.80;99.90;;;;;;4980523;28;20239;-66
2022/12/29 00:52:00;;;;;;;5.47;4.43;;;6.70;99.90;;;;;;4988840;28;20466;-66
2022/12/29 00:54:26;;;;;;;6.13;4.70;;;6.70;99.90;;;;;;4986954;28;20424;-68
2022/12/29 00:56:52;;;;;;;5.33;4.10;;;6.80;99.90;;;;;;4988314;28;20456;-65
2022/12/29 00:59:19;;;;;;;6.63;4.73;;;6.80;99.90;;;;;;4988025;28;20467;-64
2022/12/29 01:01:45;;;;;;;5.03;4.30;;;6.70;99.90;;;;;;4987468;28;20461;-66
2022/12/29 01:04:11;;;;;;;4.97;4.47;;;6.70;99.90;;;;;;4986369;28;20932;-65
2022/12/29 01:06:39;;;;;;;5.00;4.50;;;6.70;99.90;;;;;;4980360;28;20429;-67
2022/12/29 01:11:51;;;;;;;7.90;5.10;;;6.70;99.90;;;;;;4986789;28;20463;-68
2022/12/29 01:14:18;;;;;;;9.03;4.30;;;6.70;99.90;;;;;;4989392;28;21081;-65
2022/12/29 01:16:44;;;;;;;4.27;3.70;;;6.70;99.90;;;;;;4983364;28;20429;-66
2022/12/29 01:19:10;;;;;;;5.80;4.77;;;6.70;99.90;;;;;;4982345;28;20467;-67
2022/12/29 01:21:35;;;;;;;5.70;4.03;;;6.60;99.90;;;;;;4980323;28;20514;-68
2022/12/29 01:24:01;;;;;;;5.07;4.20;;;6.60;99.90;;;;;;4981950;28;20457;-66
2022/12/29 01:26:27;;;;;;;4.20;3.80;;;6.70;99.90;;;;;;4986901;28;20180;-64
2022/12/29 01:28:53;;;;;;;4.93;3.70;;;6.80;99.90;;;;;;4989530;28;20482;-67
2022/12/29 01:31:19;;;;;;;6.00;4.37;;;6.80;99.90;;;;;;4985124;28;20626;-67
2022/12/29 01:33:44;;;;;;;9.50;4.10;;;6.80;99.90;;;;;;4985382;28;20178;-66
2022/12/29 01:36:13;;;;;;;5.00;3.93;;;6.70;99.90;;;;;;4982233;28;20177;-64
2022/12/29 01:38:40;;;;;;;5.80;3.80;;;6.80;99.90;;;;;;4992937;28;20205;-64
2022/12/29 01:41:07;;;;;;;7.50;4.80;;;6.90;99.90;;;;;;4983595;28;20490;-65
2022/12/29 01:43:49;;;;;;;5.30;4.30;;;6.80;99.90;;;;;;4990559;28;20486;-65
2022/12/29 01:46:31;;;;;;;4.53;4.10;;;6.80;99.90;;;;;;4989512;28;20455;-66
2022/12/29 01:49:04;;;;;;;14.23;4.80;;;6.80;99.90;;;;;;4987704;28;20476;-67
2022/12/29 01:51:32;;;;;;;12.67;4.90;;;6.80;99.90;;;;;;4990727;28;21146;-67
2022/12/29 01:54:01;;;;;;;5.20;4.37;;;6.80;99.90;;;;;;4991584;28;20443;-65
2022/12/29 01:56:27;;;;;;;8.83;3.70;;;6.90;99.90;;;;;;4993759;28;20897;-66
2022/12/29 01:59:08;;;;;;;6.53;3.70;;;6.90;93.60;;;;;;4993029;28;20439;-68
2022/12/29 02:01:34;;;;;;;4.13;3.40;;;7.00;47.70;;;;;;4991654;28;20239;-65
2022/12/29 02:04:01;;;;;;;5.33;4.60;;;6.90;21.30;;;;;;4995338;28;20877;-65
2022/12/29 02:06:32;;;;;;;5.27;4.43;;;6.90;14.20;;;;;;4973551;28;20464;-65
2022/12/29 02:08:59;;;;;;;7.17;3.60;;;6.80;35.90;;;;;;4975477;28;20451;-65
2022/12/29 02:11:27;;;;;;;4.90;4.30;;;6.90;4.00;;;;;;4975012;28;20404;-64
2022/12/29 02:13:53;;;;;;;5.67;4.50;;;6.80;2.50;;;;;;4974214;28;20467;-67
2022/12/29 02:16:27;;;;;;;5.33;3.63;;;6.90;1.00;;;;;;4988589;28;20403;-66
2022/12/29 02:19:11;;;;;;;3.93;3.60;;;6.80;1.00;;;;;;4976083;28;20748;-66
2022/12/29 02:22:01;;;;;;;4.70;4.10;;;6.80;1.00;;;;;;4992198;28;20491;-64
2022/12/29 02:25:02;;;;;;;4.30;3.80;;;6.90;1.00;;;;;;4992880;28;20487;-66
2022/12/29 02:27:46;;;;;;;8.23;4.20;;;7.00;1.00;;;;;;4992878;28;20428;-67
2022/12/29 02:30:11;;;;;;;12.17;3.97;;;6.90;1.00;;;;;;4989140;28;20424;-67
2022/12/29 02:32:54;;;;;;;4.40;3.70;;;6.90;1.00;;;;;;4990121;28;20431;-65
2022/12/29 02:35:49;;;;;;;4.30;3.90;;;6.90;1.00;;;;;;4972034;28;20185;-66
2022/12/29 02:39:12;;;;;;;3.73;3.20;;;6.90;1.00;;;;;;4991157;28;21282;-65
2022/12/29 02:42:08;;;;;;;4.33;3.27;;;6.90;1.00;;;;;;4907330;29;20550;-66
2022/12/29 02:44:55;;;;;;;5.13;3.90;;;6.90;1.00;;;;;;4896337;29;20427;-67
2022/12/29 02:47:29;;;;;;;3.83;3.50;;;6.90;1.00;;;;;;4912241;29;21023;-67
2022/12/29 02:50:02;;;;;;;5.70;3.50;;;6.90;6.20;;;;;;4910622;29;20522;-66
2022/12/29 02:52:38;;;;;;;8.23;3.60;;;7.00;1.00;;;;;;4911050;29;20534;-64
2022/12/29 02:55:05;;;;;;;7.90;3.80;;;7.00;1.00;;;;;;4913390;29;20439;-65
2022/12/29 02:57:35;;;;;;;4.33;3.63;;;7.00;1.00;;;;;;4911770;29;20462;-66
2022/12/29 03:00:14;;;;;;;10.40;4.67;;;6.90;1.00;;;;;;4909837;29;21014;-66
2022/12/29 03:02:39;;;;;;;4.90;3.43;;;7.00;1.20;;;;;;4913698;29;20766;-66
2022/12/29 03:05:31;;;;;;;5.93;4.80;;;6.90;7.50;;;;;;4913313;29;20435;-67
2022/12/29 03:08:22;;;;;;;4.87;4.17;;;7.00;10.70;;;;;;4913898;29;20242;-65
2022/12/29 03:11:00;;;;;;;7.93;4.20;;;7.00;1.00;;;;;;4908962;29;20560;-65
2022/12/29 03:16:37;;;;;;;5.23;3.10;;;6.90;19.00;;;;;;4988599;28;20435;-66
2022/12/29 03:19:25;;;;;;;7.40;4.10;;;7.00;15.90;;;;;;5017340;23;20521;-65
2022/12/29 03:22:30;;;;;;;6.77;3.90;;;7.00;22.40;;;;;;5009103;28;20450;-66
2022/12/29 03:25:10;;;;;;;7.53;3.50;;;7.10;1.00;;;;;;5010191;28;20427;-66
2022/12/29 03:27:40;;;;;;;5.20;3.77;;;7.00;1.00;;;;;;5009702;28;20438;-65
2022/12/29 03:30:07;;;;;;;5.33;3.57;;;7.00;1.00;;;;;;5005312;28;20947;-65
2022/12/29 03:32:38;;;;;;;4.43;3.43;;;7.00;1.00;;;;;;4995486;28;20436;-67
2022/12/29 03:35:05;;;;;;;6.83;3.30;;;7.00;1.00;;;;;;4991773;28;20432;-66
2022/12/29 03:37:37;;;;;;;4.87;3.20;;;7.00;1.00;;;;;;4994473;28;20429;-66
2022/12/29 03:40:05;;;;;;;5.40;3.43;;;7.00;1.00;;;;;;4995712;28;20464;-66
2022/12/29 03:42:34;;;;;;;3.00;2.70;;;7.10;1.00;;;;;;5002183;28;20785;-66
2022/12/29 03:44:59;;;;;;;4.10;3.20;;;7.10;1.00;;;;;;4995614;28;20787;-66
2022/12/29 03:47:25;;;;;;;13.87;3.47;;;7.10;1.00;;;;;;4989716;28;20428;-64
2022/12/29 03:49:51;;;;;;;7.00;3.90;;;7.20;1.00;;;;;;4999042;28;20196;-64
2022/12/29 03:52:17;;;;;;;9.37;3.47;;;7.20;1.00;;;;;;4989537;28;20181;-65
2022/12/29 03:54:43;;;;;;;3.57;3.20;;;7.20;1.00;;;;;;4994320;28;20459;-65
2022/12/29 03:57:10;;;;;;;5.10;2.83;;;7.20;1.00;;;;;;4989913;28;20444;-66
2022/12/29 03:59:36;;;;;;;4.03;3.13;;;7.10;1.00;;;;;;4989466;28;20681;-66
2022/12/29 04:02:01;;;;;;;3.90;2.80;;;7.20;1.00;;;;;;4989788;28;20443;-65
2022/12/29 04:04:27;;;;;;;3.27;2.60;;;7.20;1.00;;;;;;4990020;28;20642;-66
2022/12/29 04:06:53;;;;;;;5.70;3.67;;;7.20;1.00;;;;;;4990835;28;20180;-66
2022/12/29 04:09:19;;;;;;;3.60;2.67;;;7.40;1.00;;;;;;4999095;28;20221;-66
2022/12/29 04:11:44;;;;;;;8.67;3.50;;;7.40;1.00;;;;;;4992148;28;20319;-66
2022/12/29 04:14:10;;;;;;;3.80;2.80;;;7.30;1.00;;;;;;4992511;28;20188;-66
2022/12/29 04:16:38;;;;;;;9.23;2.77;;;7.40;1.00;;;;;;4991765;28;20189;-65
2022/12/29 04:19:04;;;;;;;3.07;2.50;;;7.40;1.00;;;;;;4990430;28;20221;-66
2022/12/29 04:21:30;;;;;;;6.33;3.43;;;7.40;1.00;;;;;;4993559;28;20433;-66
2022/12/29 04:23:56;;;;;;;2.80;2.60;;;7.40;1.00;;;;;;5003424;28;20442;-65
2022/12/29 04:26:22;;;;;;;5.80;2.30;;;7.30;1.00;;;;;;4997610;28;20188;-65
2022/12/29 04:28:48;;;;;;;5.10;2.63;;;7.30;1.00;;;;;;4990623;28;20205;-65
2022/12/29 04:31:13;;;;;;;4.37;2.63;;;7.30;1.00;;;;;;4989689;28;20684;-66
2022/12/29 04:33:39;;;;;;;3.67;3.00;;;7.40;1.00;;;;;;5004409;28;20203;-66
2022/12/29 04:36:05;;;;;;;2.90;2.60;;;7.40;1.00;;;;;;4990842;28;20211;-66
2022/12/29 04:38:31;;;;;;;4.40;3.17;;;7.40;1.00;;;;;;4991771;28;20192;-65
2022/12/29 04:40:59;;;;;;;3.63;3.07;;;7.40;1.00;;;;;;4990394;28;20249;-65
2022/12/29 04:43:25;;;;;;;4.20;2.37;;;7.40;1.00;;;;;;4988994;28;20173;-66
2022/12/29 04:45:51;;;;;;;6.33;2.30;;;7.40;1.00;;;;;;5003132;28;20791;-66
2022/12/29 04:48:16;;;;;;;4.37;2.67;;;7.40;1.00;;;;;;4993114;28;20226;-66
2022/12/29 04:50:42;;;;;;;6.57;3.33;;;7.40;1.00;;;;;;4996650;28;20187;-66
2022/12/29 04:53:08;;;;;;;2.67;2.47;;;7.40;1.00;;;;;;4993064;28;20746;-66
2022/12/29 04:55:34;;;;;;;3.00;2.43;;;7.60;1.00;;;;;;4993799;28;21025;-66
2022/12/29 04:58:00;;;;;;;3.90;2.63;;;7.60;1.00;;;;;;4995839;28;20436;-66
2022/12/29 05:00:26;;;;;;;5.93;2.60;;;7.50;1.00;;;;;;5000770;28;20207;-66
2022/12/29 05:02:51;;;;;;;2.70;2.27;;;7.40;1.00;;;;;;4993737;28;20177;-66
2022/12/29 05:05:17;;;;;;;2.90;2.60;;;7.30;1.00;;;;;;4992878;28;20196;-65
2022/12/29 05:07:44;;;;;;;5.03;2.67;;;7.30;1.00;;;;;;5002999;28;20488;-65
2022/12/29 05:10:10;;;;;;;2.70;2.50;;;7.30;1.00;;;;;;5000960;28;20443;-66
2022/12/29 05:12:37;;;;;;;8.50;2.83;;;7.20;1.00;;;;;;4990646;28;20423;-68
2022/12/29 05:15:04;;;;;;;6.73;2.83;;;7.40;1.00;;;;;;4994160;28;20434;-68
2022/12/29 05:17:29;;;;;;;7.83;3.37;;;7.20;1.00;;;;;;4992689;28;20435;-66
2022/12/29 05:19:55;;;;;;;3.33;2.87;;;7.10;1.00;;;;;;5005473;28;20463;-67
2022/12/29 05:22:21;;;;;;;3.30;2.50;;;7.00;1.00;;;;;;4991139;28;20181;-67
2022/12/29 05:24:47;;;;;;;4.70;2.63;;;7.20;1.00;;;;;;4989946;28;20184;-67
2022/12/29 05:27:13;;;;;;;7.27;2.90;;;7.20;1.00;;;;;;4991994;28;20268;-67
2022/12/29 05:29:38;;;;;;;11.13;3.17;;;7.10;1.00;;;;;;4998557;28;20617;-67
2022/12/29 05:32:04;;;;;;;4.70;3.43;;;7.10;1.00;;;;;;4987037;28;20188;-66
2022/12/29 05:34:30;;;;;;;4.77;2.93;;;7.20;1.00;;;;;;4998027;28;20181;-68
2022/12/29 05:36:55;;;;;;;3.40;2.70;;;7.10;1.00;;;;;;4992075;28;20656;-68
2022/12/29 05:39:21;;;;;;;4.50;2.73;;;7.20;1.00;;;;;;4992842;28;20661;-67
2022/12/29 05:41:47;;;;;;;2.93;2.73;;;7.20;1.00;;;;;;4992198;28;20169;-68
2022/12/29 05:44:12;;;;;;;5.40;2.70;;;7.20;1.00;;;;;;4992627;28;20165;-64
2022/12/29 05:46:38;;;;;;;6.20;2.53;;;7.20;1.00;;;;;;4993199;28;20165;-65
2022/12/29 05:49:05;;;;;;;9.00;3.30;;;7.00;1.00;;;;;;4992937;28;20184;-67
2022/12/29 05:51:31;;;;;;;4.80;2.40;;;6.90;1.00;;;;;;4991562;28;20427;-67
2022/12/29 05:53:57;;;;;;;2.87;2.20;;;6.90;1.00;;;;;;4998933;28;20493;-67
2022/12/29 05:56:23;;;;;;;3.33;3.03;;;6.80;1.00;;;;;;4991984;28;20699;-67
2022/12/29 05:58:49;;;;;;;3.37;2.57;;;6.80;1.00;;;;;;4992019;28;20464;-65
2022/12/29 06:01:14;;;;;;;2.70;2.30;;;6.80;1.00;;;;;;4992013;28;20452;-66
2022/12/29 06:03:40;;;;;;;2.57;2.30;;;6.80;1.00;;;;;;4992885;28;20658;-66
2022/12/29 06:06:06;;;;;;;4.00;2.50;;;6.90;1.00;;;;;;4992890;28;20304;-66
2022/12/29 06:08:32;;;;;;;4.70;2.73;;;7.00;1.00;;;;;;4992935;28;20212;-66
2022/12/29 06:10:58;;;;;;;3.90;2.30;;;7.00;1.00;;;;;;4992226;28;20579;-66
2022/12/29 06:13:24;;;;;;;4.50;2.70;;;6.90;1.00;;;;;;4992217;28;20169;-66
2022/12/29 06:15:50;;;;;;;5.53;2.83;;;7.00;1.00;;;;;;4992563;28;20654;-66
2022/12/29 06:18:16;;;;;;;2.83;2.63;;;7.00;1.00;;;;;;4973936;28;20519;-66
2022/12/29 06:20:41;;;;;;;2.40;2.20;;;7.00;1.00;;;;;;4972379;28;20523;-65
2022/12/29 06:23:07;;;;;;;2.90;2.43;;;7.00;1.00;;;;;;4973190;28;20576;-66
2022/12/29 06:25:35;;;;;;;2.93;2.10;;;7.00;1.00;;;;;;4973173;28;20201;-65
2022/12/29 06:28:02;;;;;;;3.47;2.43;;;7.10;1.00;;;;;;4972974;28;20401;-67
2022/12/29 06:30:27;;;;;;;4.20;2.60;;;7.10;1.00;;;;;;4971594;28;20417;-65
2022/12/29 06:32:54;;;;;;;6.80;2.67;;;7.00;1.00;;;;;;4984269;28;20439;-66
2022/12/29 06:35:22;;;;;;;10.30;3.20;;;7.00;1.00;;;;;;4997557;28;20181;-67
2022/12/29 06:37:48;;;;;;;13.87;2.70;;;7.10;1.00;;;;;;4996717;28;20454;-67
2022/12/29 06:40:14;;;;;;;24.37;4.10;;;7.00;1.00;;;;;;5001543;28;20607;-66
2022/12/29 06:42:40;;;;;;;16.20;3.77;;;7.00;1.00;;;;;;5002580;28;20519;-66
2022/12/29 06:45:07;;;;;;;7.90;2.97;;;7.00;1.00;;;;;;4995141;28;20626;-67
2022/12/29 06:47:33;;;;;;;10.63;3.50;;;7.10;1.00;;;;;;4992223;28;20200;-67
2022/12/29 06:49:59;;;;;;;22.53;3.87;;;7.00;1.00;;;;;;5000902;28;20904;-67
2022/12/29 06:52:25;;;;;;;22.27;4.00;;;7.10;1.00;;;;;;4996412;28;20527;-66
2022/12/29 06:54:50;;;;;;;12.93;2.70;;;7.10;1.00;;;;;;5000282;28;20211;-66
2022/12/29 06:57:16;;;;;;;16.30;3.20;;;7.10;1.00;;;;;;4994231;28;20606;-66
2022/12/29 06:59:42;;;;;;;15.10;3.63;;;7.10;1.00;;;;;;4991066;28;20517;-67
2022/12/29 07:02:14;;;;;;;13.40;4.43;;;7.00;1.00;;;;;;4997278;28;20192;-66
2022/12/29 07:04:40;;;;;;;16.23;4.00;;;7.10;1.00;;;;;;4997619;28;20177;-66
2022/12/29 07:07:05;;;;;;;15.97;3.20;;;7.10;1.00;;;;;;4996200;28;20446;-66
2022/12/29 07:09:31;;;;;;;7.20;2.70;;;7.10;1.00;;;;;;4991814;28;20287;-66
2022/12/29 07:11:57;;;;;;;3.90;2.80;;;7.20;1.00;;;;;;4990013;28;20184;-65
2022/12/29 07:14:23;;;;;;;7.63;3.27;;;7.40;1.00;;;;;;5005660;28;20246;-66
2022/12/29 07:16:48;;;;;;;6.40;2.73;;;7.30;1.00;;;;;;4999342;28;20185;-66
2022/12/29 07:19:14;;;;;;;5.90;2.77;;;7.60;1.00;;;;;;4993420;28;20216;-66
2022/12/29 07:21:40;;;;;;;4.70;3.00;;;7.40;1.00;;;;;;4992687;28;20177;-66
2022/12/29 07:24:06;;;;;;;5.63;3.23;;;7.30;1.00;;;;;;4969171;28;20236;-66
2022/12/29 07:26:31;;;;;;;5.77;3.27;;;7.20;1.00;;;;;;4997697;28;20184;-66
2022/12/29 07:28:57;;;;;;;4.17;3.00;;;7.30;1.00;;;;;;4999522;28;20550;-67
2022/12/29 07:31:23;;;;;;;16.50;3.30;;;7.60;1.00;;;;;;4994493;28;20859;-67
2022/12/29 07:33:49;;;;;;;22.70;5.50;;;8.60;1.00;;;;;;4990013;28;20185;-67
2022/12/29 07:36:17;;;;;;;21.23;4.97;;;9.70;1.00;;;;;;4997031;28;20243;-67
2022/12/29 07:38:43;;;;;;;11.23;3.73;;;10.70;99.90;;;;;;4989048;28;20452;-67
2022/12/29 07:41:09;;;;;;;4.13;3.20;;;11.30;99.90;;;;;;4991535;28;21313;-67
2022/12/29 07:43:35;;;;;;;61.93;8.80;;;11.30;99.90;;;;;;4988439;28;20992;-65
2022/12/29 07:46:01;;;;;;;27.43;4.40;;;10.70;99.90;;;;;;4995972;28;20910;-65
2022/12/29 07:48:27;;;;;;;16.63;4.23;;;9.70;99.90;;;;;;4992723;28;20479;-65
2022/12/29 07:50:53;;;;;;;11.30;3.50;;;9.00;99.90;;;;;;5005988;28;20672;-65
2022/12/29 07:53:19;;;;;;;22.50;5.90;;;8.60;99.90;;;;;;4991033;28;20870;-65
2022/12/29 07:55:44;;;;;;;52.07;7.90;;;8.30;99.90;;;;;;4991327;28;20579;-66
2022/12/29 07:58:10;;;;;;;20.13;5.67;;;8.30;99.90;;;;;;4990368;28;20207;-67
2022/12/29 08:00:37;;;;;;;136.47;20.50;;;8.40;99.90;;;;;;4994002;28;20208;-66
2022/12/29 08:03:04;;;;;;;266.23;25.20;;;8.40;99.90;;;;;;4992291;28;20183;-65
2022/12/29 08:05:34;;;;;;;41.73;6.67;;;8.40;99.90;;;;;;4990609;28;20443;-68
2022/12/29 08:08:00;;;;;;;23.13;5.33;;;8.50;99.90;;;;;;4996427;28;20519;-67
2022/12/29 08:10:25;;;;;;;15.40;5.00;;;8.60;99.90;;;;;;4992640;28;20528;-67
2022/12/29 08:12:51;;;;;;;8.90;3.97;;;8.50;99.90;;;;;;4998923;28;20472;-67
2022/12/29 08:15:17;;;;;;;34.43;5.50;;;8.40;99.90;;;;;;4988818;28;20207;-69
2022/12/29 08:17:43;;;;;;;36.47;6.30;;;8.40;99.90;;;;;;4989987;28;20180;-68
2022/12/29 08:20:09;;;;;;;9.27;4.70;;;8.30;99.90;;;;;;4988932;28;20212;-67
2022/12/29 08:22:34;;;;;;;16.67;4.77;;;8.20;99.90;;;;;;4985135;28;20550;-66
2022/12/29 08:25:00;;;;;;;31.30;5.90;;;8.30;99.90;;;;;;4989962;28;20432;-65
2022/12/29 08:27:26;;;;;;;11.03;4.43;;;8.30;99.90;;;;;;4998509;28;20171;-67
2022/12/29 08:29:52;;;;;;;8.90;5.37;;;8.20;99.90;;;;;;4989285;28;20275;-66
2022/12/29 08:32:18;;;;;;;45.23;8.00;;;8.30;99.90;;;;;;4989202;28;20199;-67
2022/12/29 08:34:44;;;;;;;22.33;5.47;;;8.30;99.90;;;;;;4989244;28;20235;-67
2022/12/29 08:37:09;;;;;;;21.00;5.77;;;8.30;99.90;;;;;;4987164;28;20440;-67
2022/12/29 08:39:35;;;;;;;16.53;5.00;;;8.40;99.90;;;;;;4992801;28;20220;-67
2022/12/29 08:42:01;;;;;;;58.23;9.77;;;8.40;99.90;;;;;;4970035;28;20196;-67
2022/12/29 08:44:26;;;;;;;40.43;8.03;;;8.50;99.90;;;;;;4988729;28;20628;-67
2022/12/29 08:46:52;;;;;;;23.07;5.23;;;8.40;99.90;;;;;;4993957;28;20181;-67
2022/12/29 08:49:18;;;;;;;18.57;4.90;;;8.40;99.90;;;;;;5004433;28;20262;-67
2022/12/29 08:51:43;;;;;;;12.70;4.40;;;8.50;99.90;;;;;;4998109;28;20211;-68
2022/12/29 08:54:09;;;;;;;8.00;3.80;;;8.50;99.90;;;;;;5000067;28;20184;-67
2022/12/29 08:56:35;;;;;;;9.13;3.80;;;8.50;99.90;;;;;;4991224;28;20648;-68
2022/12/29 08:59:00;;;;;;;13.00;4.67;;;8.70;99.90;;;;;;4999961;28;20549;-67
2022/12/29 09:01:26;;;;;;;55.93;10.27;;;8.80;99.90;;;;;;4996225;28;20185;-66
2022/12/29 09:03:53;;;;;;;58.67;9.67;;;8.90;99.90;;;;;;4997940;28;20621;-68
2022/12/29 09:06:20;;;;;;;75.73;10.13;;;9.10;99.90;;;;;;4993434;28;20181;-67
2022/12/29 09:08:45;;;;;;;32.97;6.23;;;9.40;99.90;;;;;;4995097;28;20439;-67
2022/12/29 09:11:20;;;;;;;42.63;6.50;;;9.70;99.90;;;;;;4994723;28;20781;-68
2022/12/29 09:13:47;;;;;;;58.17;9.37;;;10.30;99.90;;;;;;5002056;28;20300;-66
2022/12/29 09:16:13;;;;;;;40.30;7.53;;;10.70;99.90;;;;;;4993648;28;20442;-67
2022/12/29 09:18:39;;;;;;;61.47;11.67;;;11.10;99.90;;;;;;4993234;28;20451;-66
2022/12/29 09:21:06;;;;;;;71.87;12.47;;;11.50;99.90;;;;;;4992802;28;20724;-66
2022/12/29 09:23:33;;;;;;;60.30;10.40;;;12.00;99.90;;;;;;4993374;28;20426;-66
2022/12/29 09:26:00;;;;;;;31.07;8.10;;;12.50;99.90;;;;;;4987737;28;20926;-66
2022/12/29 09:28:25;;;;;;;25.20;6.40;;;12.90;99.90;;;;;;4979479;28;20441;-66
2022/12/29 09:30:51;;;;;;;28.73;8.03;;;13.00;99.90;;;;;;4973250;28;20912;-66
2022/12/29 09:33:18;;;;;;;25.23;7.17;;;12.70;99.90;;;;;;4992366;28;20185;-65
2022/12/29 09:35:45;;;;;;;11.63;3.63;;;12.70;99.90;;;;;;4982278;28;20929;-66
2022/12/29 09:38:11;;;;;;;12.47;4.97;;;12.70;99.90;;;;;;4993769;28;20448;-67
2022/12/29 09:40:38;;;;;;;7.10;3.70;;;12.80;99.90;;;;;;4997370;28;20459;-66
2022/12/29 09:43:46;;;;;;;8.03;3.70;;;12.40;99.90;;;;;;4990544;28;20408;-66
2022/12/29 09:46:49;;;;;;;18.43;6.27;;;11.80;99.90;;;;;;4969253;28;20484;-66
2022/12/29 09:49:21;;;;;;;6.60;3.90;;;11.20;99.90;;;;;;4911236;29;20992;-66
2022/12/29 09:51:51;;;;;;;3.60;3.20;;;10.90;99.90;;;;;;4946366;28;20425;-66
2022/12/29 09:54:39;;;;;;;37.93;8.10;;;10.90;99.90;;;;;;4967161;28;20746;-65
2022/12/29 09:57:16;;;;;;;18.80;5.70;;;11.20;99.90;;;;;;4967437;28;20418;-65
2022/12/29 09:59:44;;;;;;;8.93;4.80;;;11.50;99.90;;;;;;4968996;28;20471;-68
2022/12/29 10:02:43;;;;;;;31.73;6.70;;;11.70;99.90;;;;;;4967110;28;20424;-65
2022/12/29 10:05:22;;;;;;;20.50;5.50;;;11.50;99.90;;;;;;4978958;28;20476;-65
2022/12/29 10:08:06;;;;;;;17.60;5.37;;;11.40;99.90;;;;;;4985789;28;20434;-65
2022/12/29 10:11:15;;;;;;;55.90;9.73;;;11.50;99.90;;;;;;4996837;28;21081;-64
2022/12/29 10:14:12;;;;;;;11.83;4.57;;;11.50;99.90;;;;;;4945673;28;20449;-67
2022/12/29 10:16:51;;;;;;;13.80;4.20;;;11.30;99.90;;;;;;4988578;28;20429;-65
2022/12/29 10:19:54;;;;;;;13.50;4.27;;;11.10;99.90;;;;;;4991848;28;20795;-65
2022/12/29 10:22:31;;;;;;;20.80;5.10;;;11.90;99.90;;;;;;4985138;28;20439;-65
2022/12/29 10:24:58;;;;;;;14.57;7.23;;;12.60;1.00;;;;;;4987511;28;20515;-65
2022/12/29 10:27:24;;;;;;;9.80;4.50;;;13.00;99.90;;;;;;4989859;28;20785;-65
2022/12/29 10:29:55;;;;;;;4.60;3.90;;;12.60;99.90;;;;;;4989518;28;20491;-65
2022/12/29 10:32:24;;;;;;;6.00;3.67;;;12.30;99.90;;;;;;4987478;28;20905;-65
2022/12/29 10:34:58;;;;;;;6.27;4.10;;;12.20;99.90;;;;;;4985924;28;20440;-65
2022/12/29 10:37:48;;;;;;;42.67;10.07;;;12.40;99.90;;;;;;4985625;28;20470;-66
2022/12/29 10:40:24;;;;;;;13.40;4.57;;;12.40;99.90;;;;;;4995500;28;20478;-66
2022/12/29 10:42:56;;;;;;;8.70;3.90;;;12.50;99.90;;;;;;4988629;28;20435;-66
2022/12/29 10:45:25;;;;;;;10.90;4.33;;;12.80;99.90;;;;;;4986637;28;20424;-66
2022/12/29 10:48:25;;;;;;;9.20;4.47;;;13.10;99.90;;;;;;4990619;28;20432;-65
2022/12/29 10:50:56;;;;;;;5.10;4.03;;;13.20;99.90;;;;;;4982259;28;20535;-66
2022/12/29 10:53:43;;;;;;;5.67;4.00;;;12.90;99.90;;;;;;4986142;28;20474;-66
2022/12/29 10:56:22;;;;;;;75.50;15.37;;;12.80;99.90;;;;;;4995279;28;20496;-66
2022/12/29 10:58:49;;;;;;;70.57;10.57;;;12.70;99.90;;;;;;4990331;28;20455;-66
2022/12/29 11:01:17;;;;;;;22.40;5.90;;;12.70;99.90;;;;;;4985874;28;20486;-66
2022/12/29 11:03:55;;;;;;;34.47;6.27;;;12.60;99.90;;;;;;4991378;28;20423;-65
2022/12/29 11:06:29;;;;;;;16.47;5.43;;;12.50;99.90;;;;;;4998283;28;20428;-65
2022/12/29 11:09:19;;;;;;;21.30;4.30;;;12.40;99.90;;;;;;4987915;28;20460;-64
2022/12/29 11:11:45;;;;;;;8.67;4.07;;;12.20;99.90;;;;;;4988330;28;20427;-66
2022/12/29 11:14:13;;;;;;;14.40;4.57;;;12.20;99.90;;;;;;4990262;28;20421;-65
2022/12/29 11:16:41;;;;;;;50.57;10.10;;;12.20;99.90;;;;;;4993408;28;20427;-64
2022/12/29 11:19:23;;;;;;;64.50;11.63;;;12.20;99.90;;;;;;4997859;28;20463;-66
2022/12/29 11:21:49;;;;;;;13.77;3.07;;;12.20;99.90;;;;;;4977894;28;20813;-66
2022/12/29 11:24:25;;;;;;;38.47;6.87;;;12.30;99.90;;;;;;4989412;28;20436;-66
2022/12/29 11:26:57;;;;;;;24.07;4.60;;;12.40;99.90;;;;;;4987877;28;20954;-65
2022/12/29 11:29:28;;;;;;;19.43;4.90;;;12.40;99.90;;;;;;4987788;28;20440;-64
2022/12/29 11:31:57;;;;;;;32.67;5.10;;;12.30;99.90;;;;;;4988105;28;20958;-65
2022/12/29 11:34:35;;;;;;;20.03;4.00;;;12.20;99.90;;;;;;4991329;28;20424;-65
2022/12/29 11:37:11;;;;;;;15.00;4.10;;;12.20;99.90;;;;;;4987939;28;20489;-65
2022/12/29 11:40:07;;;;;;;14.93;3.50;;;12.30;99.90;;;;;;4987622;28;20513;-65
2022/12/29 11:42:42;;;;;;;14.43;4.13;;;12.10;99.90;;;;;;4976015;28;20437;-65
2022/12/29 11:45:20;;;;;;;10.63;3.37;;;12.10;99.90;;;;;;4968137;28;20405;-65
2022/12/29 11:47:49;;;;;;;12.03;3.43;;;12.00;99.90;;;;;;4968000;28;20408;-66
2022/12/29 11:50:24;;;;;;;47.07;6.57;;;12.10;99.90;;;;;;4968394;28;20439;-65
2022/12/29 11:53:02;;;;;;;71.90;9.00;;;12.20;99.90;;;;;;4978218;28;20446;-66
2022/12/29 11:55:29;;;;;;;39.20;5.03;;;12.20;99.90;;;;;;4996064;28;20494;-65
2022/12/29 11:57:57;;;;;;;143.03;17.67;;;12.20;99.90;;;;;;5005771;28;20440;-65
2022/12/29 12:00:27;;;;;;;53.13;8.37;;;12.20;99.90;;;;;;4987025;28;20498;-66
2022/12/29 12:03:01;;;;;;;27.27;5.87;;;12.40;99.90;;;;;;4986715;28;20480;-66
2022/12/29 12:05:53;;;;;;;13.80;4.40;;;12.40;99.90;;;;;;4998378;28;20966;-65
2022/12/29 12:08:28;;;;;;;336.30;320.60;;;12.70;99.90;;;;;;4966913;28;20885;-65
2022/12/29 12:11:17;;;;;;;900.97;837.23;;;13.20;99.90;;;;;;5005650;28;20437;-66
2022/12/29 12:13:52;;;;;;;771.23;716.70;;;;;;;;;;4997773;28;20444;-66
2022/12/29 12:16:39;;;;;;;229.27;215.20;;;14.60;99.90;;;;;;4994791;28;20415;-65
2022/12/29 12:19:20;;;;;;;75.17;68.73;;;15.40;99.90;;;;;;4986867;28;21002;-65
2022/12/29 12:21:51;;;;;;;83.20;47.13;;;15.80;99.90;;;;;;4985093;28;20416;-66
2022/12/29 12:24:23;;;;;;;62.73;58.40;;;16.50;99.90;;;;;;4990391;28;20486;-66
2022/12/29 12:27:26;;;;;;;716.37;638.10;;;17.10;99.90;;;;;;4986065;28;20544;-66
2022/12/29 12:30:15;;;;;;;626.00;570.83;;;17.60;99.90;;;;;;4986386;28;20900;-66
2022/12/29 12:32:59;;;;;;;1151.53;924.60;;;17.50;99.90;;;;;;4985412;28;20546;-64
2022/12/29 12:35:52;;;;;;;1545.33;999.90;;;16.90;99.90;;;;;;4982465;28;20459;-64
2022/12/29 12:38:32;;;;;;;1062.10;929.13;;;16.60;99.90;;;;;;4984708;28;20448;-64
2022/12/29 12:40:58;;;;;;;100.30;89.90;;;16.50;99.90;;;;;;4990365;28;20484;-62
2022/12/29 12:43:54;;;;;;;431.20;401.70;;;16.20;99.90;;;;;;4983736;28;20530;-63
2022/12/29 12:46:35;;;;;;;102.70;43.40;;;16.10;99.90;;;;;;4984524;28;20319;-62
2022/12/29 12:49:31;;;;;;;53.33;12.60;;;15.40;99.90;;;;;;4988492;28;20456;-64
2022/12/29 12:52:00;;;;;;;32.93;5.00;;;15.20;99.90;;;;;;4988471;28;20507;-63
2022/12/29 12:54:37;;;;;;;7.20;3.40;;;14.50;99.90;;;;;;4987852;28;20927;-64
2022/12/29 12:57:21;;;;;;;15.00;3.23;;;14.00;99.90;;;;;;4996281;28;21334;-64
2022/12/29 13:00:08;;;;;;;5.50;2.90;;;13.50;99.90;;;;;;4992788;28;21053;-63
2022/12/29 13:02:55;;;;;;;17.30;4.30;;;13.20;99.90;;;;;;4984975;28;20753;-62
2022/12/29 13:05:51;;;;;;;27.73;4.80;;;13.00;99.90;;;;;;4986467;28;20423;-63
2022/12/29 13:08:35;;;;;;;11.37;4.90;;;12.80;99.90;;;;;;4961207;28;20452;-63
2022/12/29 13:11:19;;;;;;;20.03;5.50;;;12.80;99.90;;;;;;4990122;28;20435;-62
2022/12/29 13:14:12;;;;;;;16.63;3.80;;;12.70;99.90;;;;;;4988993;28;20947;-64
2022/12/29 13:16:56;;;;;;;39.43;7.90;;;12.50;99.90;;;;;;4987377;28;20432;-65
2022/12/29 13:19:51;;;;;;;12.93;4.43;;;12.50;99.90;;;;;;4992286;28;20468;-65
2022/12/29 13:22:58;;;;;;;17.10;5.00;;;12.40;99.90;;;;;;4990507;28;20436;-65
2022/12/29 13:25:55;;;;;;;39.27;6.03;;;12.40;99.90;;;;;;4927091;29;20446;-66
2022/12/29 13:28:24;;;;;;;13.10;4.20;;;12.30;99.90;;;;;;4986430;28;20456;-64
2022/12/29 13:31:18;;;;;;;27.50;9.20;;;12.30;99.90;;;;;;4987994;28;20472;-64
2022/12/29 13:34:18;;;;;;;25.97;7.43;;;12.30;99.90;;;;;;4996784;28;20523;-66
2022/12/29 13:36:52;;;;;;;21.80;4.70;;;12.30;99.90;;;;;;4989802;28;20493;-63
2022/12/29 13:39:24;;;;;;;11.43;4.77;;;12.20;99.90;;;;;;4989432;28;20459;-63
2022/12/29 13:42:01;;;;;;;8.10;5.13;;;12.20;99.90;;;;;;4989245;28;20427;-64
2022/12/29 13:44:43;;;;;;;13.33;3.93;;;12.20;99.90;;;;;;4995066;28;20416;-65
2022/12/29 13:47:46;;;;;;;7.63;4.10;;;12.10;99.90;;;;;;4991529;28;20511;-64